createdAt,value
2018-07-12T00:00:24.790Z,15.13
2018-07-12T00:01:24.772Z,15.11
2018-07-12T00:02:24.762Z,15.08
2018-07-12T00:03:24.746Z,15.15
2018-07-12T00:04:24.733Z,15.08
2018-07-12T00:05:24.711Z,15.12
2018-07-12T00:06:24.700Z,15.08
2018-07-12T00:07:24.686Z,15.06
2018-07-12T00:08:24.673Z,15.11
2018-07-12T00:09:24.656Z,15.09
2018-07-12T00:10:24.636Z,15.17
2018-07-12T00:11:24.621Z,15.08
2018-07-12T00:12:24.611Z,15.06
2018-07-12T00:13:24.595Z,15.09
2018-07-12T00:14:24.576Z,15.09
2018-07-12T00:15:24.560Z,15.08
2018-07-12T00:16:24.544Z,15.06
2018-07-12T00:17:24.535Z,15.15
2018-07-12T00:18:24.512Z,15.09
2018-07-12T00:19:24.497Z,15.17
2018-07-12T00:20:24.484Z,15.11
2018-07-12T00:21:24.474Z,15.09
2018-07-12T00:22:24.451Z,15.03
2018-07-12T00:23:24.441Z,15.06
2018-07-12T00:24:24.425Z,15.08
2018-07-12T00:25:24.407Z,15.03
2018-07-12T00:26:24.393Z,15.05
2018-07-12T00:27:24.381Z,15.02
2018-07-12T00:28:24.366Z,15.05
2018-07-12T00:29:24.345Z,14.93
2018-07-12T00:30:24.330Z,15.02
2018-07-12T00:31:24.315Z,14.99
2018-07-12T00:32:24.306Z,14.91
2018-07-12T00:33:24.294Z,14.91
2018-07-12T00:34:24.267Z,14.95
2018-07-12T00:35:24.261Z,14.95
2018-07-12T00:36:24.240Z,14.90
2018-07-12T00:37:24.230Z,14.94
2018-07-12T00:38:24.208Z,14.95
2018-07-12T00:39:24.195Z,15.01
2018-07-12T00:40:24.186Z,14.99
2018-07-12T00:41:24.170Z,14.95
2018-07-12T00:42:24.148Z,14.93
2018-07-12T00:43:24.132Z,14.95
2018-07-12T00:44:24.117Z,14.91
2018-07-12T00:45:24.104Z,14.91
2018-07-12T00:46:24.091Z,15.06
2018-07-12T00:47:24.072Z,14.94
2018-07-12T00:48:24.062Z,14.94
2018-07-12T00:49:24.047Z,14.93
2018-07-12T00:50:24.034Z,14.91
2018-07-12T00:51:24.012Z,14.98
2018-07-12T00:52:24.002Z,14.90
2018-07-12T00:53:23.985Z,14.75
2018-07-12T00:54:23.966Z,14.86
2018-07-12T00:55:23.949Z,14.84
2018-07-12T00:56:23.937Z,14.87
2018-07-12T00:57:23.927Z,14.84
2018-07-12T00:58:23.911Z,14.87
2018-07-12T00:59:23.889Z,14.71
2018-07-12T01:00:23.873Z,14.67
2018-07-12T01:01:23.863Z,14.74
2018-07-12T01:02:23.841Z,14.72
2018-07-12T01:03:23.828Z,14.69
2018-07-12T01:04:23.812Z,14.69
2018-07-12T01:05:23.802Z,14.71
2018-07-12T01:06:23.783Z,14.71
2018-07-12T01:07:23.766Z,14.78
2018-07-12T01:08:23.750Z,14.78
2018-07-12T01:09:23.741Z,14.78
2018-07-12T01:10:23.718Z,14.74
2018-07-12T01:11:23.708Z,14.67
2018-07-12T01:12:23.692Z,14.72
2018-07-12T01:13:23.679Z,14.78
2018-07-12T01:14:23.668Z,14.62
2018-07-12T01:15:23.644Z,14.62
2018-07-12T01:16:23.626Z,14.57
2018-07-12T01:17:23.619Z,14.52
2018-07-12T01:18:23.594Z,14.47
2018-07-12T01:19:23.581Z,14.47
2018-07-12T01:20:23.568Z,14.42
2018-07-12T01:21:23.552Z,14.46
2018-07-12T01:22:23.533Z,14.35
2018-07-12T01:23:23.523Z,14.42
2018-07-12T01:24:23.504Z,14.44
2018-07-12T01:25:23.491Z,14.35
2018-07-12T01:26:23.475Z,14.39
2018-07-12T01:27:23.456Z,14.27
2018-07-12T01:28:23.446Z,14.28
2018-07-12T01:29:23.421Z,14.31
2018-07-12T01:30:23.414Z,14.31
2018-07-12T01:31:23.392Z,14.29
2018-07-12T01:32:23.385Z,14.29
2018-07-12T01:33:23.365Z,14.42
2018-07-12T01:34:23.353Z,14.37
2018-07-12T01:35:23.330Z,14.44
2018-07-12T01:36:23.318Z,14.42
2018-07-12T01:37:23.299Z,14.43
2018-07-12T01:38:23.282Z,14.49
2018-07-12T01:39:23.267Z,14.42
2018-07-12T01:40:23.251Z,14.39
2018-07-12T01:41:23.237Z,14.47
2018-07-12T01:42:23.221Z,14.50
2018-07-12T01:43:23.208Z,14.44
2018-07-12T01:44:23.189Z,14.39
2018-07-12T01:45:23.173Z,14.50
2018-07-12T01:46:23.163Z,14.57
2018-07-12T01:47:23.154Z,14.54
2018-07-12T01:48:23.131Z,14.53
2018-07-12T01:49:23.119Z,14.65
2018-07-12T01:50:23.099Z,14.54
2018-07-12T01:51:23.087Z,14.54
2018-07-12T01:52:23.064Z,14.50
2018-07-12T01:53:23.048Z,14.52
2018-07-12T01:54:23.028Z,14.54
2018-07-12T01:55:23.019Z,14.43
2018-07-12T01:56:23.010Z,14.52
2018-07-12T01:57:22.990Z,14.49
2018-07-12T01:58:22.970Z,14.46
2018-07-12T01:59:22.957Z,14.53
2018-07-12T02:00:22.938Z,14.50
2018-07-12T02:01:22.929Z,14.50
2018-07-12T02:02:22.909Z,14.54
2018-07-12T02:03:22.889Z,14.56
2018-07-12T02:04:22.880Z,14.68
2018-07-12T02:05:22.867Z,14.62
2018-07-12T02:06:22.844Z,14.60
2018-07-12T02:07:22.835Z,14.65
2018-07-12T02:08:22.819Z,14.68
2018-07-12T02:09:22.793Z,14.74
2018-07-12T02:10:22.781Z,14.69
2018-07-12T02:11:22.767Z,14.65
2018-07-12T02:12:22.758Z,14.84
2018-07-12T02:13:22.739Z,14.74
2018-07-12T02:14:22.727Z,14.83
2018-07-12T02:15:22.704Z,14.84
2018-07-12T02:16:22.688Z,14.80
2018-07-12T02:17:22.679Z,14.84
2018-07-12T02:18:22.663Z,14.81
2018-07-12T02:19:22.648Z,14.84
2018-07-12T02:20:22.628Z,14.81
2018-07-12T02:21:22.615Z,14.83
2018-07-12T02:22:22.595Z,14.81
2018-07-12T02:23:22.582Z,14.90
2018-07-12T02:24:22.564Z,14.88
2018-07-12T02:25:22.564Z,14.83
2018-07-12T02:26:22.541Z,14.88
2018-07-12T02:27:22.522Z,14.81
2018-07-12T02:28:22.509Z,14.88
2018-07-12T02:29:22.497Z,14.90
2018-07-12T02:30:22.474Z,14.83
2018-07-12T02:31:22.456Z,14.90
2018-07-12T02:32:22.446Z,14.91
2018-07-12T02:33:22.436Z,14.88
2018-07-12T02:34:22.410Z,14.93
2018-07-12T02:35:22.398Z,14.90
2018-07-12T02:36:22.385Z,14.99
2018-07-12T02:37:22.367Z,14.95
2018-07-12T02:38:22.351Z,14.93
2018-07-12T02:39:22.341Z,14.95
2018-07-12T02:40:22.324Z,14.95
2018-07-12T02:41:22.306Z,14.95
2018-07-12T02:42:22.289Z,14.93
2018-07-12T02:43:22.277Z,14.99
2018-07-12T02:44:22.258Z,15.02
2018-07-12T02:45:22.253Z,15.06
2018-07-12T02:46:22.230Z,15.12
2018-07-12T02:47:22.219Z,15.02
2018-07-12T02:48:22.198Z,15.09
2018-07-12T02:49:22.181Z,15.12
2018-07-12T02:50:22.175Z,15.13
2018-07-12T02:51:22.154Z,15.13
2018-07-12T02:52:22.142Z,15.06
2018-07-12T02:53:22.128Z,15.15
2018-07-12T02:54:22.108Z,15.12
2018-07-12T02:55:22.095Z,15.08
2018-07-12T02:56:22.076Z,15.06
2018-07-12T02:57:22.061Z,15.02
2018-07-12T02:58:22.051Z,15.03
2018-07-12T02:59:22.038Z,15.06
2018-07-12T03:00:22.024Z,14.99
2018-07-12T03:01:22.003Z,15.01
2018-07-12T03:02:21.990Z,15.05
2018-07-12T03:03:21.973Z,15.05
2018-07-12T03:04:21.953Z,15.06
2018-07-12T03:05:21.944Z,15.15
2018-07-12T03:06:21.932Z,15.08
2018-07-12T03:07:21.915Z,15.19
2018-07-12T03:08:21.898Z,15.19
2018-07-12T03:09:21.889Z,15.19
2018-07-12T03:10:21.867Z,15.20
2018-07-12T03:11:21.855Z,15.17
2018-07-12T03:12:21.840Z,15.11
2018-07-12T03:13:21.822Z,15.24
2018-07-12T03:14:21.813Z,15.27
2018-07-12T03:15:21.796Z,15.27
2018-07-12T03:16:21.781Z,15.28
2018-07-12T03:17:21.759Z,15.28
2018-07-12T03:18:21.749Z,15.28
2018-07-12T03:19:21.737Z,15.28
2018-07-12T03:20:21.721Z,15.27
2018-07-12T03:21:21.698Z,15.27
2018-07-12T03:22:21.686Z,15.31
2018-07-12T03:23:21.669Z,15.38
2018-07-12T03:24:21.653Z,15.41
2018-07-12T03:25:21.644Z,15.41
2018-07-12T03:26:21.638Z,15.35
2018-07-12T03:27:21.609Z,15.35
2018-07-12T03:28:21.593Z,15.36
2018-07-12T03:29:21.579Z,15.36
2018-07-12T03:30:21.572Z,15.36
2018-07-12T03:31:21.557Z,15.35
2018-07-12T03:32:21.535Z,15.39
2018-07-12T03:33:21.526Z,15.39
2018-07-12T03:34:21.507Z,15.38
2018-07-12T03:35:21.493Z,15.36
2018-07-12T03:36:21.481Z,15.38
2018-07-12T03:37:21.458Z,15.42
2018-07-12T03:38:21.449Z,15.39
2018-07-12T03:39:21.431Z,15.35
2018-07-12T03:40:21.474Z,15.35
2018-07-12T03:41:21.403Z,15.30
2018-07-12T03:42:21.388Z,15.41
2018-07-12T03:43:21.377Z,15.33
2018-07-12T03:44:21.354Z,15.30
2018-07-12T03:45:21.345Z,15.38
2018-07-12T03:46:21.330Z,15.38
2018-07-12T03:47:21.317Z,15.38
2018-07-12T03:48:21.303Z,15.45
2018-07-12T03:49:21.283Z,15.49
2018-07-12T03:50:21.265Z,15.38
2018-07-12T03:51:21.256Z,15.49
2018-07-12T03:52:21.236Z,15.45
2018-07-12T03:53:21.223Z,15.45
2018-07-12T03:54:21.207Z,15.45
2018-07-12T03:55:21.191Z,15.43
2018-07-12T03:56:21.175Z,15.52
2018-07-12T03:57:21.169Z,15.41
2018-07-12T03:58:21.152Z,15.45
2018-07-12T03:59:21.139Z,15.42
2018-07-12T04:00:21.118Z,15.52
2018-07-12T04:01:21.098Z,15.56
2018-07-12T04:02:21.092Z,15.42
2018-07-12T04:03:21.078Z,15.56
2018-07-12T04:04:21.063Z,15.45
2018-07-12T04:05:21.050Z,15.43
2018-07-12T04:06:21.037Z,15.48
2018-07-12T04:07:21.018Z,15.51
2018-07-12T04:08:20.999Z,15.42
2018-07-12T04:09:20.982Z,15.54
2018-07-12T04:10:20.970Z,15.63
2018-07-12T04:11:20.953Z,15.51
2018-07-12T04:12:20.960Z,15.59
2018-07-12T04:13:20.921Z,15.64
2018-07-12T04:14:20.915Z,15.68
2018-07-12T04:15:20.899Z,15.61
2018-07-12T04:16:20.880Z,15.66
2018-07-12T04:17:20.864Z,15.75
2018-07-12T04:18:20.854Z,15.79
2018-07-12T04:19:20.835Z,15.81
2018-07-12T04:20:20.822Z,15.82
2018-07-12T04:21:20.812Z,15.88
2018-07-12T04:22:20.791Z,15.89
2018-07-12T04:23:20.777Z,15.99
2018-07-12T04:24:20.767Z,16.07
2018-07-12T04:25:20.748Z,16.11
2018-07-12T04:26:20.738Z,16.20
2018-07-12T04:27:20.727Z,16.27
2018-07-12T04:28:20.718Z,16.33
2018-07-12T04:29:20.697Z,16.38
2018-07-12T04:30:20.678Z,16.41
2018-07-12T04:31:20.662Z,16.35
2018-07-12T04:32:20.652Z,16.44
2018-07-12T04:33:20.636Z,16.48
2018-07-12T04:34:20.636Z,16.31
2018-07-12T04:35:20.610Z,16.38
2018-07-12T04:36:20.595Z,16.37
2018-07-12T04:37:20.582Z,16.20
2018-07-12T04:38:20.564Z,16.22
2018-07-12T04:39:20.558Z,16.14
2018-07-12T04:40:20.539Z,16.20
2018-07-12T04:41:20.520Z,16.14
2018-07-12T04:42:20.513Z,16.07
2018-07-12T04:43:20.491Z,16.11
2018-07-12T04:44:20.478Z,16.06
2018-07-12T04:45:20.471Z,16.07
2018-07-12T04:46:20.469Z,16.03
2018-07-12T04:47:20.446Z,15.89
2018-07-12T04:48:20.424Z,15.97
2018-07-12T04:49:20.410Z,15.93
2018-07-12T04:50:20.398Z,15.99
2018-07-12T04:51:20.437Z,15.88
2018-07-12T04:52:20.369Z,15.92
2018-07-12T04:53:20.398Z,15.89
2018-07-12T04:54:20.340Z,15.92
2018-07-12T04:55:20.338Z,15.92
2018-07-12T04:56:20.308Z,15.93
2018-07-12T04:57:20.298Z,15.92
2018-07-12T04:58:20.349Z,15.93
2018-07-12T04:59:20.269Z,16.04
2018-07-12T05:00:20.257Z,16.04
2018-07-12T05:01:20.239Z,16.23
2018-07-12T05:02:20.233Z,16.25
2018-07-12T05:03:20.219Z,16.38
2018-07-12T05:04:20.203Z,16.40
2018-07-12T05:05:20.181Z,16.37
2018-07-12T05:06:20.163Z,16.45
2018-07-12T05:07:20.156Z,16.45
2018-07-12T05:08:20.145Z,16.42
2018-07-12T05:09:20.127Z,16.42
2018-07-12T05:10:20.123Z,16.44
2018-07-12T05:11:20.098Z,16.60
2018-07-12T05:12:20.082Z,16.52
2018-07-12T05:13:20.069Z,16.44
2018-07-12T05:14:20.057Z,16.45
2018-07-12T05:15:20.044Z,16.42
2018-07-12T05:16:20.031Z,16.41
2018-07-12T05:17:20.015Z,16.45
2018-07-12T05:18:19.999Z,16.45
2018-07-12T05:19:19.985Z,16.52
2018-07-12T05:20:19.971Z,16.60
2018-07-12T05:21:19.968Z,16.59
2018-07-12T05:22:19.941Z,16.62
2018-07-12T05:23:19.935Z,16.50
2018-07-12T05:24:19.923Z,16.48
2018-07-12T05:25:19.903Z,16.52
2018-07-12T05:26:19.887Z,16.50
2018-07-12T05:27:19.871Z,16.55
2018-07-12T05:28:19.865Z,16.59
2018-07-12T05:29:19.852Z,16.59
2018-07-12T05:30:19.839Z,16.62
2018-07-12T05:31:19.823Z,16.65
2018-07-12T05:32:19.810Z,16.55
2018-07-12T05:33:19.794Z,16.55
2018-07-12T05:34:19.776Z,16.62
2018-07-12T05:35:19.798Z,16.65
2018-07-12T05:36:19.747Z,16.71
2018-07-12T05:37:19.742Z,16.73
2018-07-12T05:38:19.724Z,16.70
2018-07-12T05:39:19.735Z,16.63
2018-07-12T05:40:19.696Z,16.62
2018-07-12T05:41:19.680Z,16.73
2018-07-12T05:42:19.677Z,16.81
2018-07-12T05:43:19.658Z,16.86
2018-07-12T05:44:19.645Z,16.83
2018-07-12T05:45:19.629Z,16.86
2018-07-12T05:46:19.619Z,16.88
2018-07-12T05:47:19.597Z,16.99
2018-07-12T05:48:19.584Z,16.98
2018-07-12T05:49:19.574Z,17.03
2018-07-12T05:50:19.557Z,17.11
2018-07-12T05:51:19.541Z,17.18
2018-07-12T05:52:19.528Z,17.29
2018-07-12T05:53:19.525Z,17.29
2018-07-12T05:54:19.499Z,17.29
2018-07-12T05:55:19.487Z,17.29
2018-07-12T05:56:19.474Z,17.29
2018-07-12T05:57:19.467Z,17.33
2018-07-12T05:58:19.448Z,17.47
2018-07-12T05:59:19.440Z,17.62
2018-07-12T06:00:19.424Z,17.74
2018-07-12T06:01:19.407Z,17.84
2018-07-12T06:02:19.398Z,17.92
2018-07-12T06:03:19.384Z,17.91
2018-07-12T06:04:19.375Z,17.81
2018-07-12T06:05:19.363Z,17.95
2018-07-12T06:06:19.351Z,17.91
2018-07-12T06:07:19.331Z,17.87
2018-07-12T06:08:19.322Z,17.85
2018-07-12T06:09:19.296Z,17.67
2018-07-12T06:10:19.293Z,17.84
2018-07-12T06:11:19.285Z,17.79
2018-07-12T06:12:19.267Z,17.88
2018-07-12T06:13:19.302Z,17.85
2018-07-12T06:14:19.248Z,17.97
2018-07-12T06:15:19.236Z,17.94
2018-07-12T06:16:19.217Z,17.87
2018-07-12T06:17:19.210Z,17.94
2018-07-12T06:18:19.191Z,17.97
2018-07-12T06:19:19.177Z,18.04
2018-07-12T06:20:19.168Z,18.15
2018-07-12T06:21:19.155Z,18.13
2018-07-12T06:22:19.142Z,18.02
2018-07-12T06:23:19.132Z,18.02
2018-07-12T06:24:19.119Z,18.24
2018-07-12T06:25:19.110Z,18.19
2018-07-12T06:26:19.091Z,18.36
2018-07-12T06:27:19.085Z,18.42
2018-07-12T06:28:19.068Z,18.44
2018-07-12T06:29:19.061Z,18.55
2018-07-12T06:30:19.043Z,18.73
2018-07-12T06:31:19.037Z,18.87
2018-07-12T06:32:19.020Z,19.11
2018-07-12T06:33:19.014Z,18.99
2018-07-12T06:34:19.000Z,19.08
2018-07-12T06:35:18.988Z,19.10
2018-07-12T06:36:18.970Z,18.97
2018-07-12T06:37:19.040Z,19.08
2018-07-12T06:38:18.948Z,19.29
2018-07-12T06:39:18.935Z,19.40
2018-07-12T06:40:18.922Z,19.69
2018-07-12T06:41:18.923Z,19.88
2018-07-12T06:42:18.906Z,20.10
2018-07-12T06:43:18.890Z,20.18
2018-07-12T06:44:18.884Z,20.03
2018-07-12T06:45:18.872Z,19.86
2018-07-12T06:46:18.862Z,19.72
2018-07-12T06:47:18.843Z,19.72
2018-07-12T06:48:18.843Z,19.84
2018-07-12T06:49:18.820Z,19.76
2018-07-12T06:50:18.814Z,19.78
2018-07-12T06:51:18.799Z,19.87
2018-07-12T06:52:18.789Z,19.87
2018-07-12T06:53:18.782Z,19.84
2018-07-12T06:54:18.769Z,19.78
2018-07-12T06:55:18.757Z,19.66
2018-07-12T06:56:18.747Z,19.66
2018-07-12T06:57:18.737Z,19.83
2018-07-12T06:58:18.729Z,20.03
2018-07-12T06:59:18.715Z,20.18
2018-07-12T07:00:18.712Z,20.00
2018-07-12T07:01:18.702Z,19.78
2018-07-12T07:02:18.686Z,19.83
2018-07-12T07:03:18.686Z,19.70
2018-07-12T07:04:18.667Z,19.68
2018-07-12T07:05:18.654Z,19.73
2018-07-12T07:06:18.648Z,19.63
2018-07-12T07:07:18.635Z,19.53
2018-07-12T07:08:18.622Z,19.50
2018-07-12T07:09:18.613Z,19.66
2018-07-12T07:10:18.603Z,19.65
2018-07-12T07:11:18.600Z,19.73
2018-07-12T07:12:18.584Z,19.79
2018-07-12T07:13:18.570Z,19.80
2018-07-12T07:14:18.564Z,19.91
2018-07-12T07:15:18.568Z,19.97
2018-07-12T07:16:18.542Z,20.02
2018-07-12T07:17:18.533Z,20.05
2018-07-12T07:18:18.519Z,20.15
2018-07-12T07:19:18.523Z,20.15
2018-07-12T07:20:18.512Z,19.98
2018-07-12T07:21:18.491Z,19.94
2018-07-12T07:22:18.481Z,19.72
2018-07-12T07:23:18.476Z,19.66
2018-07-12T07:24:18.462Z,19.66
2018-07-12T07:25:18.449Z,19.68
2018-07-12T07:26:18.481Z,19.55
2018-07-12T07:27:18.430Z,19.48
2018-07-12T07:28:18.425Z,19.38
2018-07-12T07:29:18.414Z,19.40
2018-07-12T07:30:18.402Z,19.38
2018-07-12T07:31:18.392Z,19.28
2018-07-12T07:32:18.411Z,19.15
2018-07-12T07:33:18.378Z,19.10
2018-07-12T07:34:18.359Z,19.05
2018-07-12T07:35:18.353Z,19.08
2018-07-12T07:36:18.347Z,19.06
2018-07-12T07:37:18.330Z,19.17
2018-07-12T07:38:18.321Z,19.15
2018-07-12T07:39:18.308Z,19.13
2018-07-12T07:40:18.298Z,19.06
2018-07-12T07:41:18.292Z,18.95
2018-07-12T07:42:18.282Z,18.97
2018-07-12T07:43:18.270Z,18.90
2018-07-12T07:44:18.257Z,18.95
2018-07-12T07:45:18.247Z,18.95
2018-07-12T07:46:18.241Z,19.36
2018-07-12T07:47:18.228Z,19.63
2018-07-12T07:48:18.219Z,19.75
2018-07-12T07:49:18.267Z,19.90
2018-07-12T07:50:18.196Z,19.68
2018-07-12T07:51:18.186Z,19.39
2018-07-12T07:52:18.176Z,19.17
2018-07-12T07:53:18.166Z,19.08
2018-07-12T07:54:18.153Z,19.13
2018-07-12T07:55:18.143Z,19.25
2018-07-12T07:56:18.134Z,19.70
2018-07-12T07:57:18.121Z,19.50
2018-07-12T07:58:18.112Z,19.55
2018-07-12T07:59:18.099Z,19.46
2018-07-12T08:00:18.096Z,19.42
2018-07-12T08:01:18.080Z,19.54
2018-07-12T08:02:18.063Z,19.54
2018-07-12T08:03:18.110Z,19.46
2018-07-12T08:04:18.041Z,19.42
2018-07-12T08:05:18.031Z,19.38
2018-07-12T08:06:18.023Z,19.47
2018-07-12T08:07:18.019Z,19.54
2018-07-12T08:08:18.007Z,19.69
2018-07-12T08:09:17.989Z,19.73
2018-07-12T08:10:17.984Z,20.00
2018-07-12T08:11:17.971Z,20.15
2018-07-12T08:12:17.964Z,20.93
2018-07-12T08:13:17.958Z,20.98
2018-07-12T08:14:17.941Z,20.86
2018-07-12T08:15:17.933Z,20.54
2018-07-12T08:16:17.960Z,20.41
2018-07-12T08:17:17.917Z,20.46
2018-07-12T08:18:17.906Z,20.31
2018-07-12T08:19:17.891Z,20.15
2018-07-12T08:20:17.881Z,20.09
2018-07-12T08:21:17.875Z,20.31
2018-07-12T08:22:17.866Z,20.51
2018-07-12T08:23:17.868Z,20.35
2018-07-12T08:24:17.850Z,20.39
2018-07-12T08:25:17.840Z,20.13
2018-07-12T08:26:17.824Z,20.18
2018-07-12T08:27:17.827Z,20.05
2018-07-12T08:28:17.811Z,20.03
2018-07-12T08:29:17.803Z,20.66
2018-07-12T08:30:17.788Z,21.71
2018-07-12T08:31:17.823Z,22.50
2018-07-12T08:32:17.776Z,23.05
2018-07-12T08:33:17.829Z,23.72
2018-07-12T08:34:17.756Z,23.94
2018-07-12T08:35:17.750Z,23.49
2018-07-12T08:36:17.744Z,23.15
2018-07-12T08:37:17.729Z,23.02
2018-07-12T08:38:17.724Z,23.07
2018-07-12T08:39:17.716Z,22.60
2018-07-12T08:40:17.708Z,23.27
2018-07-12T08:41:17.705Z,22.86
2018-07-12T08:42:17.721Z,22.62
2018-07-12T08:43:17.683Z,23.11
2018-07-12T08:44:17.683Z,23.05
2018-07-12T08:45:17.676Z,23.04
2018-07-12T08:46:17.690Z,23.64
2018-07-12T08:47:17.654Z,23.67
2018-07-12T08:48:17.687Z,23.04
2018-07-12T08:49:17.641Z,22.62
2018-07-12T08:50:17.637Z,22.37
2018-07-12T08:51:17.628Z,22.25
2018-07-12T08:52:17.625Z,22.57
2018-07-12T08:53:17.620Z,23.08
2018-07-12T08:54:17.612Z,23.60
2018-07-12T08:55:17.599Z,24.19
2018-07-12T08:56:17.600Z,24.49
2018-07-12T08:57:17.587Z,24.44
2018-07-12T08:58:17.581Z,24.26
2018-07-12T08:59:17.574Z,24.50
2018-07-12T09:00:17.578Z,24.76
2018-07-12T09:01:17.562Z,24.77
2018-07-12T09:02:17.559Z,24.68
2018-07-12T09:03:17.552Z,24.47
2018-07-12T09:04:17.549Z,24.26
2018-07-12T09:05:17.540Z,23.89
2018-07-12T09:06:17.542Z,24.10
2018-07-12T09:07:17.535Z,23.64
2018-07-12T09:08:17.524Z,23.43
2018-07-12T09:09:17.524Z,23.22
2018-07-12T09:10:17.514Z,23.45
2018-07-12T09:11:17.507Z,23.40
2018-07-12T09:12:17.498Z,23.90
2018-07-12T09:13:17.497Z,24.52
2018-07-12T09:14:17.485Z,24.57
2018-07-12T09:15:17.483Z,24.76
2018-07-12T09:16:17.481Z,24.41
2018-07-12T09:17:17.476Z,24.16
2018-07-12T09:18:17.469Z,24.61
2018-07-12T09:19:17.465Z,24.05
2018-07-12T09:20:17.455Z,23.83
2018-07-12T09:21:17.446Z,23.80
2018-07-12T09:22:17.450Z,23.77
2018-07-12T09:23:17.443Z,24.13
2018-07-12T09:24:17.430Z,24.63
2018-07-12T09:25:17.465Z,24.67
2018-07-12T09:26:17.421Z,24.82
2018-07-12T09:27:17.420Z,25.16
2018-07-12T09:28:17.411Z,24.82
2018-07-12T09:29:17.482Z,24.82
2018-07-12T09:30:17.404Z,24.22
2018-07-12T09:31:17.392Z,23.67
2018-07-12T09:32:17.390Z,23.47
2018-07-12T09:33:17.389Z,23.70
2018-07-12T09:34:17.374Z,23.61
2018-07-12T09:35:17.374Z,24.22
2018-07-12T09:36:17.365Z,24.22
2018-07-12T09:37:17.365Z,23.75
2018-07-12T09:38:17.365Z,23.58
2018-07-12T09:39:17.348Z,23.42
2018-07-12T09:40:17.349Z,23.34
2018-07-12T09:41:17.346Z,23.04
2018-07-12T09:42:17.334Z,23.11
2018-07-12T09:43:17.326Z,23.80
2018-07-12T09:44:17.330Z,24.27
2018-07-12T09:45:17.320Z,24.27
2018-07-12T09:46:17.310Z,24.08
2018-07-12T09:47:17.319Z,23.67
2018-07-12T09:48:17.357Z,23.79
2018-07-12T09:49:17.420Z,24.20
2018-07-12T09:50:17.288Z,24.17
2018-07-12T09:51:17.291Z,24.13
2018-07-12T09:52:17.282Z,24.53
2018-07-12T09:53:17.279Z,24.69
2018-07-12T09:54:17.272Z,24.85
2018-07-12T09:55:17.266Z,24.69
2018-07-12T09:56:17.407Z,24.76
2018-07-12T09:57:17.250Z,24.87
2018-07-12T09:58:17.250Z,24.45
2018-07-12T09:59:17.242Z,24.26
2018-07-12T10:00:17.233Z,24.47
2018-07-12T10:01:17.299Z,24.61
2018-07-12T10:02:17.225Z,24.53
2018-07-12T10:03:17.218Z,24.85
2018-07-12T10:04:17.217Z,25.15
2018-07-12T10:05:17.211Z,25.01
2018-07-12T10:06:17.205Z,24.91
2018-07-12T10:07:17.199Z,24.34
2018-07-12T10:08:17.199Z,24.10
2018-07-12T10:09:17.192Z,23.98
2018-07-12T10:10:17.188Z,23.90
2018-07-12T10:11:17.178Z,23.79
2018-07-12T10:12:17.175Z,23.42
2018-07-12T10:13:17.174Z,22.80
2018-07-12T10:14:17.169Z,22.71
2018-07-12T10:15:17.159Z,22.69
2018-07-12T10:16:17.158Z,22.65
2018-07-12T10:17:17.157Z,22.71
2018-07-12T10:18:17.146Z,22.80
2018-07-12T10:19:17.142Z,22.74
2018-07-12T10:20:17.143Z,22.74
2018-07-12T10:21:17.127Z,23.05
2018-07-12T10:22:17.130Z,23.70
2018-07-12T10:23:17.120Z,24.26
2018-07-12T10:24:17.119Z,24.85
2018-07-12T10:25:17.105Z,24.63
2018-07-12T10:26:17.099Z,24.61
2018-07-12T10:27:17.096Z,24.87
2018-07-12T10:28:17.095Z,24.91
2018-07-12T10:29:17.090Z,24.61
2018-07-12T10:30:17.086Z,24.32
2018-07-12T10:31:17.079Z,24.10
2018-07-12T10:32:17.069Z,24.16
2018-07-12T10:33:17.063Z,23.94
2018-07-12T10:34:17.061Z,23.89
2018-07-12T10:35:17.059Z,23.75
2018-07-12T10:36:17.053Z,23.79
2018-07-12T10:37:17.050Z,23.64
2018-07-12T10:38:17.037Z,23.70
2018-07-12T10:39:17.035Z,23.72
2018-07-12T10:40:17.026Z,23.92
2018-07-12T10:41:17.023Z,23.98
2018-07-12T10:42:17.015Z,24.32
2018-07-12T10:43:17.015Z,24.22
2018-07-12T10:44:17.008Z,23.97
2018-07-12T10:45:16.999Z,24.02
2018-07-12T10:46:17.001Z,24.04
2018-07-12T10:47:16.991Z,23.98
2018-07-12T10:48:16.986Z,23.98
2018-07-12T10:49:16.983Z,24.27
2018-07-12T10:50:16.981Z,24.95
2018-07-12T10:51:16.976Z,24.98
2018-07-12T10:52:16.974Z,24.56
2018-07-12T10:53:16.971Z,24.24
2018-07-12T10:54:16.959Z,24.34
2018-07-12T10:55:16.961Z,24.44
2018-07-12T10:56:16.952Z,25.01
2018-07-12T10:57:16.955Z,25.46
2018-07-12T10:58:16.945Z,25.42
2018-07-12T10:59:16.943Z,25.02
2018-07-12T11:00:16.939Z,24.47
2018-07-12T11:01:16.933Z,24.97
2018-07-12T11:02:16.929Z,25.46
2018-07-12T11:03:16.933Z,25.56
2018-07-12T11:04:16.929Z,25.74
2018-07-12T11:05:16.923Z,26.01
2018-07-12T11:06:16.916Z,26.40
2018-07-12T11:07:16.917Z,25.72
2018-07-12T11:08:16.920Z,24.95
2018-07-12T11:09:16.921Z,24.76
2018-07-12T11:10:16.917Z,24.67
2018-07-12T11:11:16.913Z,24.53
2018-07-12T11:12:16.907Z,24.22
2018-07-12T11:13:16.910Z,24.20
2018-07-12T11:14:16.900Z,23.92
2018-07-12T11:15:16.905Z,24.01
2018-07-12T11:16:16.897Z,24.14
2018-07-12T11:17:16.891Z,24.20
2018-07-12T11:18:16.888Z,24.26
2018-07-12T11:19:16.884Z,24.12
2018-07-12T11:20:16.893Z,24.24
2018-07-12T11:21:16.929Z,24.31
2018-07-12T11:22:16.871Z,24.49
2018-07-12T11:23:16.873Z,24.29
2018-07-12T11:24:16.872Z,24.20
2018-07-12T11:25:16.868Z,24.12
2018-07-12T11:26:16.856Z,23.95
2018-07-12T11:27:16.856Z,24.01
2018-07-12T11:28:16.856Z,24.05
2018-07-12T11:29:16.846Z,24.60
2018-07-12T11:30:16.858Z,25.28
2018-07-12T11:31:16.840Z,25.83
2018-07-12T11:32:16.837Z,26.28
2018-07-12T11:33:16.842Z,26.35
2018-07-12T11:34:16.836Z,26.79
2018-07-12T11:35:16.834Z,26.46
2018-07-12T11:36:16.866Z,26.12
2018-07-12T11:37:16.830Z,25.94
2018-07-12T11:38:16.826Z,25.49
2018-07-12T11:39:16.833Z,25.15
2018-07-12T11:40:16.860Z,24.94
2018-07-12T11:41:16.820Z,24.87
2018-07-12T11:42:16.831Z,24.63
2018-07-12T11:43:16.817Z,24.63
2018-07-12T11:44:16.814Z,24.32
2018-07-12T11:45:16.819Z,24.10
2018-07-12T11:46:16.811Z,24.17
2018-07-12T11:47:16.811Z,24.27
2018-07-12T11:48:16.808Z,24.23
2018-07-12T11:49:16.808Z,24.07
2018-07-12T11:50:16.802Z,24.12
2018-07-12T11:51:16.798Z,24.77
2018-07-12T11:52:16.786Z,24.82
2018-07-12T11:53:16.785Z,24.68
2018-07-12T11:54:16.778Z,24.77
2018-07-12T11:55:16.775Z,24.77
2018-07-12T11:56:16.772Z,25.62
2018-07-12T11:57:16.769Z,25.37
2018-07-12T11:58:16.766Z,25.19
2018-07-12T11:59:16.762Z,25.32
2018-07-12T12:00:16.768Z,25.89
2018-07-12T12:01:16.778Z,26.65
2018-07-12T12:02:16.753Z,26.91
2018-07-12T12:03:16.753Z,26.89
2018-07-12T12:04:16.753Z,27.46
2018-07-12T12:05:16.747Z,27.62
2018-07-12T12:06:16.753Z,27.14
2018-07-12T12:07:16.770Z,26.94
2018-07-12T12:08:16.757Z,26.57
2018-07-12T12:09:16.748Z,26.49
2018-07-12T12:10:16.761Z,26.18
2018-07-12T12:11:16.747Z,25.94
2018-07-12T12:12:16.750Z,25.75
2018-07-12T12:13:16.744Z,25.47
2018-07-12T12:14:16.744Z,25.12
2018-07-12T12:15:16.743Z,24.76
2018-07-12T12:16:16.748Z,24.44
2018-07-12T12:17:16.737Z,24.41
2018-07-12T12:18:16.741Z,25.32
2018-07-12T12:19:16.759Z,25.25
2018-07-12T12:20:16.728Z,25.86
2018-07-12T12:21:16.734Z,26.08
2018-07-12T12:22:16.724Z,26.37
2018-07-12T12:23:16.722Z,27.19
2018-07-12T12:24:16.724Z,27.86
2018-07-12T12:25:16.729Z,28.53
2018-07-12T12:26:16.728Z,28.93
2018-07-12T12:27:16.728Z,29.28
2018-07-12T12:28:16.755Z,29.23
2018-07-12T12:29:16.732Z,29.66
2018-07-12T12:30:16.741Z,29.38
2018-07-12T12:31:16.731Z,29.87
2018-07-12T12:32:16.737Z,29.49
2018-07-12T12:33:16.743Z,28.63
2018-07-12T12:34:16.741Z,27.92
2018-07-12T12:35:16.748Z,27.02
2018-07-12T12:36:16.750Z,26.37
2018-07-12T12:37:16.754Z,25.57
2018-07-12T12:38:16.757Z,25.39
2018-07-12T12:39:16.753Z,25.09
2018-07-12T12:40:16.763Z,24.98
2018-07-12T12:41:16.754Z,24.91
2018-07-12T12:42:16.753Z,24.67
2018-07-12T12:43:16.761Z,24.44
2018-07-12T12:44:16.754Z,24.49
2018-07-12T12:45:16.750Z,24.53
2018-07-12T12:46:16.752Z,24.64
2018-07-12T12:47:16.746Z,25.61
2018-07-12T12:48:16.751Z,25.82
2018-07-12T12:49:16.748Z,26.47
2018-07-12T12:50:16.738Z,26.31
2018-07-12T12:51:16.744Z,26.08
2018-07-12T12:52:16.735Z,27.04